createdAt,value
2022-12-25T00:00:29.834Z,6.44
2022-12-25T00:02:58.350Z,6.36
2022-12-25T00:05:26.800Z,6.36
2022-12-25T00:07:55.029Z,6.30
2022-12-25T00:10:23.213Z,6.23
2022-12-25T00:12:51.911Z,6.16
2022-12-25T00:15:21.402Z,6.13
2022-12-25T00:17:49.579Z,6.10
2022-12-25T00:20:17.827Z,6.10
2022-12-25T00:22:45.999Z,6.10
2022-12-25T00:25:14.139Z,6.07
2022-12-25T00:27:42.380Z,6.02
2022-12-25T00:30:11.192Z,5.98
2022-12-25T00:32:42.229Z,5.91
2022-12-25T00:35:10.818Z,5.94
2022-12-25T00:37:38.923Z,5.90
2022-12-25T00:40:08.077Z,5.92
2022-12-25T00:42:36.214Z,5.95
2022-12-25T00:45:05.884Z,5.97
2022-12-25T00:47:33.955Z,5.93
2022-12-25T00:50:03.410Z,5.88
2022-12-25T00:52:31.685Z,5.83
2022-12-25T00:54:59.877Z,5.79
2022-12-25T00:57:28.128Z,5.77
2022-12-25T00:59:56.289Z,5.72
2022-12-25T01:02:24.749Z,5.70
2022-12-25T01:04:55.458Z,5.67
2022-12-25T01:07:27.654Z,5.64
2022-12-25T01:10:13.149Z,5.68
2022-12-25T01:12:43.591Z,5.61
2022-12-25T01:15:13.825Z,5.52
2022-12-25T01:17:42.897Z,5.47
2022-12-25T01:20:11.687Z,5.40
2022-12-25T01:22:41.220Z,5.35
2022-12-25T01:25:10.659Z,5.32
2022-12-25T01:27:38.903Z,5.31
2022-12-25T01:30:08.121Z,5.33
2022-12-25T01:32:36.310Z,5.37
2022-12-25T01:35:04.529Z,5.41
2022-12-25T01:37:32.616Z,5.41
2022-12-25T01:40:02.154Z,5.42
2022-12-25T01:42:30.344Z,5.39
2022-12-25T01:45:34.094Z,5.35
2022-12-25T01:48:06.395Z,5.35
2022-12-25T01:50:37.025Z,5.34
2022-12-25T01:53:06.372Z,5.35
2022-12-25T01:55:37.348Z,5.37
2022-12-25T01:58:05.683Z,5.34
2022-12-25T02:00:34.071Z,5.33
2022-12-25T02:03:02.459Z,5.32
2022-12-25T02:05:33.165Z,5.26
2022-12-25T02:08:05.377Z,5.29
2022-12-25T02:10:34.902Z,5.38
2022-12-25T02:13:04.037Z,5.51
2022-12-25T02:15:41.487Z,5.59
2022-12-25T02:18:15.053Z,5.72
2022-12-25T02:20:56.397Z,5.85
2022-12-25T02:23:48.877Z,5.90
2022-12-25T02:26:27.506Z,5.94
2022-12-25T02:29:03.983Z,5.98
2022-12-25T02:31:41.166Z,5.95
2022-12-25T02:34:16.796Z,5.90
2022-12-25T02:36:50.863Z,5.82
2022-12-25T02:39:41.659Z,5.74
2022-12-25T02:42:15.266Z,5.72
2022-12-25T02:45:04.271Z,5.69
2022-12-25T02:47:52.044Z,5.61
2022-12-25T02:50:39.560Z,5.58
2022-12-25T02:53:27.144Z,5.53
2022-12-25T02:56:15.269Z,5.51
2022-12-25T02:59:03.988Z,5.54
2022-12-25T03:01:53.317Z,5.54
2022-12-25T03:04:43.223Z,5.56
2022-12-25T03:07:14.391Z,5.56
2022-12-25T03:10:05.027Z,5.47
2022-12-25T03:12:41.924Z,5.39
2022-12-25T03:15:31.390Z,5.40
2022-12-25T03:18:04.638Z,5.39
2022-12-25T03:20:50.738Z,5.38
2022-12-25T03:23:40.264Z,5.47
2022-12-25T03:26:26.491Z,5.48
2022-12-25T03:28:54.866Z,5.55
2022-12-25T03:31:28.031Z,5.56
2022-12-25T03:37:09.254Z,5.49
2022-12-25T03:40:04.157Z,5.47
2022-12-25T03:43:00.348Z,5.50
2022-12-25T03:45:53.424Z,5.52
2022-12-25T03:48:39.471Z,5.62
2022-12-25T03:51:31.027Z,5.62
2022-12-25T03:54:24.326Z,5.62
2022-12-25T03:57:10.518Z,5.66
2022-12-25T03:59:56.302Z,5.65
2022-12-25T04:02:41.986Z,5.67
2022-12-25T04:05:27.870Z,5.75
2022-12-25T04:08:13.282Z,5.79
2022-12-25T04:11:00.513Z,5.86
2022-12-25T04:13:46.237Z,5.88
2022-12-25T04:16:31.823Z,5.84
2022-12-25T04:19:17.367Z,5.78
2022-12-25T04:22:02.962Z,5.78
2022-12-25T04:24:48.469Z,5.81
2022-12-25T04:27:31.903Z,5.82
2022-12-25T04:30:17.784Z,5.83
2022-12-25T04:33:03.472Z,5.82
2022-12-25T04:35:48.964Z,5.82
2022-12-25T04:38:20.983Z,5.82
2022-12-25T04:40:49.281Z,5.83
2022-12-25T04:43:18.727Z,5.82
2022-12-25T04:45:53.737Z,5.81
2022-12-25T04:48:22.357Z,5.79
2022-12-25T04:50:50.506Z,5.81
2022-12-25T04:53:19.339Z,5.81
2022-12-25T04:55:47.470Z,5.83
2022-12-25T04:58:15.851Z,5.84
2022-12-25T05:00:45.257Z,5.85
2022-12-25T05:03:13.600Z,5.89
2022-12-25T05:05:41.889Z,5.94
2022-12-25T05:08:10.275Z,5.93
2022-12-25T05:10:40.912Z,5.94
2022-12-25T05:13:09.186Z,5.95
2022-12-25T05:15:40.884Z,5.95
2022-12-25T05:18:10.543Z,5.96
2022-12-25T05:20:40.431Z,5.98
2022-12-25T05:23:10.324Z,5.96
2022-12-25T05:25:40.492Z,5.92
2022-12-25T05:28:09.222Z,5.91
2022-12-25T05:30:37.419Z,5.93
2022-12-25T05:33:06.068Z,5.98
2022-12-25T05:35:37.694Z,6.09
2022-12-25T05:38:06.326Z,6.07
2022-12-25T05:40:34.771Z,6.08
2022-12-25T05:43:02.972Z,6.08
2022-12-25T05:45:32.323Z,6.09
2022-12-25T05:48:00.557Z,6.11
2022-12-25T05:50:28.804Z,6.08
2022-12-25T05:53:08.471Z,6.10
2022-12-25T05:55:37.512Z,6.09
2022-12-25T05:58:05.946Z,6.09
2022-12-25T06:00:34.532Z,6.16
2022-12-25T06:03:03.007Z,6.21
2022-12-25T06:05:31.568Z,6.27
2022-12-25T06:07:59.741Z,6.28
2022-12-25T06:10:29.203Z,6.25
2022-12-25T06:12:57.360Z,6.24
2022-12-25T06:15:25.541Z,6.28
2022-12-25T06:17:53.629Z,6.27
2022-12-25T06:20:21.783Z,6.24
2022-12-25T06:22:49.953Z,6.21
2022-12-25T06:25:18.442Z,6.24
2022-12-25T06:27:47.873Z,6.24
2022-12-25T06:30:16.603Z,6.27
2022-12-25T06:32:44.714Z,6.30
2022-12-25T06:35:12.944Z,6.28
2022-12-25T06:37:41.098Z,6.35
2022-12-25T06:40:10.056Z,6.37
2022-12-25T06:42:38.300Z,6.39
2022-12-25T06:45:08.480Z,6.33
2022-12-25T06:47:37.918Z,6.30
2022-12-25T06:50:07.356Z,6.24
2022-12-25T06:52:35.797Z,6.22
2022-12-25T06:55:03.980Z,6.27
2022-12-25T06:57:32.482Z,6.37
2022-12-25T07:00:00.700Z,6.36
2022-12-25T07:02:30.564Z,6.39
2022-12-25T07:04:59.201Z,6.42
2022-12-25T07:07:27.329Z,6.42
2022-12-25T07:09:55.585Z,6.47
2022-12-25T07:12:24.800Z,6.46
2022-12-25T07:14:56.086Z,6.52
2022-12-25T07:17:25.058Z,6.54
2022-12-25T07:19:56.004Z,6.51
2022-12-25T07:22:24.176Z,6.47
2022-12-25T07:24:52.359Z,6.52
2022-12-25T07:27:20.578Z,6.62
2022-12-25T07:29:48.678Z,6.69
2022-12-25T07:32:16.957Z,6.69
2022-12-25T07:34:45.115Z,6.71
2022-12-25T07:37:14.844Z,6.69
2022-12-25T07:39:42.964Z,6.74
2022-12-25T07:42:11.149Z,6.79
2022-12-25T07:44:39.310Z,6.81
2022-12-25T07:47:07.541Z,6.85
2022-12-25T07:49:37.039Z,6.87
2022-12-25T07:52:05.528Z,6.85
2022-12-25T07:54:34.931Z,6.83
2022-12-25T07:57:03.278Z,6.83
2022-12-25T07:59:31.359Z,6.83
2022-12-25T08:01:59.711Z,6.83
2022-12-25T08:04:28.059Z,6.86
2022-12-25T08:06:56.343Z,6.89
2022-12-25T08:09:24.590Z,6.87
2022-12-25T08:11:54.062Z,6.90
2022-12-25T08:14:22.269Z,6.90
2022-12-25T08:16:50.668Z,6.92
2022-12-25T08:19:18.970Z,6.98
2022-12-25T08:21:47.178Z,7.02
2022-12-25T08:24:15.272Z,7.02
2022-12-25T08:26:43.518Z,7.04
2022-12-25T08:29:12.999Z,7.05
2022-12-25T08:31:46.417Z,7.06
2022-12-25T08:34:14.887Z,7.06
2022-12-25T08:36:43.187Z,7.05
2022-12-25T08:39:11.561Z,7.03
2022-12-25T08:41:40.397Z,7.02
2022-12-25T08:44:08.841Z,7.02
2022-12-25T08:46:39.858Z,7.01
2022-12-25T08:49:08.109Z,6.99
2022-12-25T08:51:37.328Z,7.02
2022-12-25T08:54:05.762Z,6.98
2022-12-25T08:56:34.029Z,6.93
2022-12-25T08:59:02.277Z,6.88
2022-12-25T09:01:30.646Z,6.90
2022-12-25T09:04:00.227Z,6.91
2022-12-25T09:06:28.840Z,6.91
2022-12-25T09:08:57.083Z,6.86
2022-12-25T09:11:25.379Z,6.86
2022-12-25T09:13:53.610Z,6.85
2022-12-25T09:16:23.452Z,6.83
2022-12-25T09:18:51.962Z,6.81
2022-12-25T09:21:21.440Z,6.78
2022-12-25T09:23:49.900Z,6.75
2022-12-25T09:26:19.737Z,6.70
2022-12-25T09:28:51.971Z,6.67
2022-12-25T09:31:21.255Z,6.65
2022-12-25T09:33:49.707Z,6.69
2022-12-25T09:36:18.049Z,6.70
2022-12-25T09:38:47.520Z,6.70
2022-12-25T09:41:21.276Z,6.70
2022-12-25T09:43:51.409Z,6.77
2022-12-25T09:46:23.108Z,6.81
2022-12-25T09:49:00.485Z,6.85
2022-12-25T09:51:30.748Z,6.89
2022-12-25T09:54:06.199Z,6.94
2022-12-25T09:56:35.070Z,6.93
2022-12-25T09:59:03.579Z,6.96
2022-12-25T10:01:39.023Z,6.95
2022-12-25T10:04:21.740Z,6.96
2022-12-25T10:07:00.679Z,6.96
2022-12-25T10:09:47.101Z,6.93
2022-12-25T10:12:31.141Z,7.00
2022-12-25T10:15:05.229Z,7.06
2022-12-25T10:17:43.089Z,7.10
2022-12-25T10:20:19.631Z,7.14
2022-12-25T10:22:52.560Z,7.15
2022-12-25T10:25:26.086Z,7.16
2022-12-25T10:27:58.265Z,7.16
2022-12-25T10:30:28.567Z,7.15
2022-12-25T10:32:58.762Z,7.10
2022-12-25T10:35:30.813Z,7.09
2022-12-25T10:38:01.766Z,7.13
2022-12-25T10:40:48.086Z,7.15
2022-12-25T10:43:22.577Z,7.14
2022-12-25T10:45:51.575Z,7.12
2022-12-25T10:48:23.989Z,7.09
2022-12-25T10:50:52.636Z,7.06
2022-12-25T10:53:23.540Z,7.05
2022-12-25T10:56:17.352Z,7.03
2022-12-25T10:58:45.942Z,7.05
2022-12-25T11:01:14.947Z,7.03
2022-12-25T11:03:46.900Z,7.05
2022-12-25T11:06:24.453Z,7.03
2022-12-25T11:08:56.083Z,7.00
2022-12-25T11:11:27.051Z,7.03
2022-12-25T11:13:58.313Z,7.08
2022-12-25T11:16:29.281Z,7.18
2022-12-25T11:18:58.889Z,7.25
2022-12-25T11:21:28.782Z,7.29
2022-12-25T11:23:58.962Z,7.34
2022-12-25T11:26:30.146Z,7.40
2022-12-25T11:28:59.151Z,7.47
2022-12-25T11:31:40.392Z,7.54
2022-12-25T11:34:15.753Z,7.61
2022-12-25T11:36:46.606Z,7.65
2022-12-25T11:39:24.935Z,7.68
2022-12-25T11:41:59.096Z,7.71
2022-12-25T11:44:36.400Z,7.72
2022-12-25T11:47:13.379Z,7.73
2022-12-25T11:49:50.332Z,7.73
2022-12-25T11:52:21.656Z,7.73
2022-12-25T11:54:57.458Z,7.75
2022-12-25T11:57:30.030Z,7.77
2022-12-25T12:00:06.776Z,7.82
2022-12-25T12:02:43.765Z,7.91
2022-12-25T12:05:19.234Z,8.01
2022-12-25T12:07:58.428Z,8.08
2022-12-25T12:10:38.782Z,8.11
2022-12-25T12:13:24.761Z,8.09
2022-12-25T12:15:53.087Z,8.08
2022-12-25T12:18:24.446Z,8.09
2022-12-25T12:21:20.698Z,8.13
2022-12-25T12:23:54.412Z,8.19
2022-12-25T12:26:23.827Z,8.24
2022-12-25T12:28:56.352Z,8.24
2022-12-25T12:31:26.301Z,8.23
2022-12-25T12:33:57.602Z,8.20
2022-12-25T12:36:36.104Z,8.16
2022-12-25T12:39:06.332Z,8.14
2022-12-25T12:41:47.052Z,8.13
2022-12-25T12:44:18.502Z,8.11
2022-12-25T12:46:55.228Z,8.11
2022-12-25T12:49:25.696Z,8.11
2022-12-25T12:52:05.626Z,8.12
2022-12-25T12:54:34.268Z,8.13
2022-12-25T12:57:04.217Z,8.13
2022-12-25T12:59:40.582Z,8.09
2022-12-25T13:02:32.753Z,8.04
2022-12-25T13:05:04.953Z,8.00
2022-12-25T13:07:45.044Z,7.92
2022-12-25T13:10:24.441Z,7.86
2022-12-25T13:12:56.067Z,7.81
2022-12-25T13:15:29.122Z,7.80
2022-12-25T13:18:01.248Z,7.78
2022-12-25T13:20:40.153Z,7.76
2022-12-25T13:23:15.640Z,7.74
2022-12-25T13:25:43.900Z,7.74
2022-12-25T13:28:15.934Z,7.73
2022-12-25T13:30:47.213Z,7.71
2022-12-25T13:33:19.788Z,7.69
2022-12-25T13:35:48.729Z,7.64
2022-12-25T13:38:18.783Z,7.60
2022-12-25T13:41:06.679Z,7.56
2022-12-25T13:43:34.931Z,7.51
2022-12-25T13:46:04.541Z,7.48
2022-12-25T13:48:33.236Z,7.41
2022-12-25T13:51:03.560Z,7.35
2022-12-25T13:53:31.819Z,7.32
2022-12-25T13:56:00.488Z,7.28
2022-12-25T13:58:30.882Z,7.27
2022-12-25T14:01:01.044Z,7.23
2022-12-25T14:03:36.935Z,7.16
2022-12-25T14:06:17.772Z,7.10
2022-12-25T14:08:47.245Z,7.05
2022-12-25T14:11:17.820Z,7.00
2022-12-25T14:13:49.623Z,6.94
2022-12-25T14:16:19.435Z,6.89
2022-12-25T14:18:57.468Z,6.84
2022-12-25T14:21:32.538Z,6.80
2022-12-25T14:24:01.346Z,6.77
2022-12-25T14:26:31.989Z,6.74
2022-12-25T14:29:15.585Z,6.72
2022-12-25T14:31:46.878Z,6.72
2022-12-25T14:34:19.677Z,6.74
2022-12-25T14:36:48.626Z,6.71
2022-12-25T14:39:31.471Z,6.65
2022-12-25T14:42:00.253Z,6.57
2022-12-25T14:44:34.573Z,6.50
2022-12-25T14:47:14.071Z,6.45
2022-12-25T14:49:44.198Z,6.44
2022-12-25T14:52:19.142Z,6.41
2022-12-25T14:54:50.506Z,6.37
2022-12-25T14:57:25.512Z,6.32
2022-12-25T15:00:05.330Z,6.28
2022-12-25T15:02:41.714Z,6.27
2022-12-25T15:05:28.068Z,6.23
2022-12-25T15:08:21.610Z,6.17
2022-12-25T15:11:00.605Z,6.13
2022-12-25T15:13:31.063Z,6.07
2022-12-25T15:16:03.057Z,6.05
2022-12-25T15:18:35.667Z,5.99
2022-12-25T15:21:05.305Z,5.95
2022-12-25T15:23:33.577Z,5.90
2022-12-25T15:26:01.795Z,5.85
2022-12-25T15:28:29.949Z,5.81
2022-12-25T15:30:58.276Z,5.83
2022-12-25T15:33:26.493Z,5.82
2022-12-25T15:35:54.797Z,5.79
2022-12-25T15:38:24.666Z,5.72
2022-12-25T15:40:53.033Z,5.67
2022-12-25T15:43:39.980Z,5.66
2022-12-25T15:46:10.957Z,5.65
2022-12-25T15:48:39.246Z,5.63
2022-12-25T15:51:07.471Z,5.60
2022-12-25T15:53:37.004Z,5.57
2022-12-25T15:56:05.307Z,5.58
2022-12-25T15:58:33.399Z,5.55
2022-12-25T16:01:01.706Z,5.52
2022-12-25T16:03:30.222Z,5.52
2022-12-25T16:05:58.379Z,5.53
2022-12-25T16:08:26.507Z,5.52
2022-12-25T16:10:56.970Z,5.54
2022-12-25T16:13:25.138Z,5.58
2022-12-25T16:15:53.528Z,5.59
2022-12-25T16:18:23.877Z,5.61
2022-12-25T16:20:52.516Z,5.59
2022-12-25T16:23:20.747Z,5.54
2022-12-25T16:25:49.359Z,5.52
2022-12-25T16:28:18.907Z,5.51
2022-12-25T16:30:47.060Z,5.53
2022-12-25T16:33:15.386Z,5.56
2022-12-25T16:35:44.170Z,5.58
2022-12-25T16:38:12.613Z,5.58
2022-12-25T16:40:41.060Z,5.57
2022-12-25T16:43:09.314Z,5.53
2022-12-25T16:45:41.057Z,5.47
2022-12-25T16:48:09.428Z,5.51
2022-12-25T16:50:40.263Z,5.53
2022-12-25T16:53:08.840Z,5.51
2022-12-25T16:55:38.785Z,5.52
2022-12-25T16:58:07.939Z,5.59
2022-12-25T17:00:36.200Z,5.61
2022-12-25T17:03:05.905Z,5.61
2022-12-25T17:05:34.667Z,5.62
2022-12-25T17:08:02.840Z,5.67
2022-12-25T17:10:30.957Z,5.66
2022-12-25T17:12:59.184Z,5.66
2022-12-25T17:15:27.309Z,5.64
2022-12-25T17:17:55.456Z,5.61
2022-12-25T17:20:24.872Z,5.58
2022-12-25T17:22:53.062Z,5.59
2022-12-25T17:25:21.243Z,5.64
2022-12-25T17:27:50.612Z,5.67
2022-12-25T17:30:18.848Z,5.69
2022-12-25T17:32:47.171Z,5.67
2022-12-25T17:35:15.937Z,5.64
2022-12-25T17:37:45.426Z,5.63
2022-12-25T17:40:14.290Z,5.62
2022-12-25T17:42:42.579Z,5.59
2022-12-25T17:45:11.410Z,5.55
2022-12-25T17:47:39.689Z,5.59
2022-12-25T17:50:08.755Z,5.65
2022-12-25T17:52:37.037Z,5.67
2022-12-25T17:55:07.147Z,5.71
2022-12-25T17:57:35.442Z,5.72
2022-12-25T18:00:03.715Z,5.72
2022-12-25T18:02:33.192Z,5.72
2022-12-25T18:05:01.418Z,5.74
2022-12-25T18:07:29.589Z,5.75
2022-12-25T18:09:57.662Z,5.77
2022-12-25T18:12:27.689Z,5.79
2022-12-25T18:14:55.844Z,5.80
2022-12-25T18:17:24.010Z,5.77
2022-12-25T18:19:52.252Z,5.74
2022-12-25T18:22:20.661Z,5.71
2022-12-25T18:24:49.039Z,5.72
2022-12-25T18:27:17.282Z,5.70
2022-12-25T18:29:46.910Z,5.67
2022-12-25T18:32:15.385Z,5.63
2022-12-25T18:34:43.596Z,5.59
2022-12-25T18:37:12.639Z,5.52
2022-12-25T18:39:40.756Z,5.47
2022-12-25T18:42:26.508Z,5.43
2022-12-25T18:44:55.969Z,5.36
2022-12-25T18:47:24.160Z,5.37
2022-12-25T18:49:53.013Z,5.38
2022-12-25T18:52:48.080Z,5.41
2022-12-25T18:55:10.802Z,5.38
2022-12-25T18:57:40.834Z,5.38
2022-12-25T19:00:11.335Z,5.42
2022-12-25T19:02:39.717Z,5.44
2022-12-25T19:05:09.068Z,5.45
2022-12-25T19:07:37.804Z,5.51
2022-12-25T19:10:06.689Z,5.50
2022-12-25T19:12:34.964Z,5.55
2022-12-25T19:15:03.260Z,5.59
2022-12-25T19:17:34.320Z,5.58
2022-12-25T19:20:03.456Z,5.60
2022-12-25T19:22:31.606Z,5.65
2022-12-25T19:24:59.909Z,5.69
2022-12-25T19:27:28.048Z,5.71
2022-12-25T19:29:56.369Z,5.71
2022-12-25T19:32:24.542Z,5.72
2022-12-25T19:34:54.134Z,5.69
2022-12-25T19:37:22.299Z,5.70
2022-12-25T19:39:50.531Z,5.70
2022-12-25T19:42:18.951Z,5.67
2022-12-25T19:44:47.219Z,5.63
2022-12-25T19:47:15.478Z,5.61
2022-12-25T19:49:44.246Z,5.57
2022-12-25T19:52:15.366Z,5.54
2022-12-25T19:54:43.580Z,5.56
2022-12-25T19:57:11.692Z,5.58
2022-12-25T19:59:40.652Z,5.53
2022-12-25T20:02:10.765Z,5.52
2022-12-25T20:04:39.079Z,5.53
2022-12-25T20:07:07.291Z,5.46
2022-12-25T20:09:36.842Z,5.42
2022-12-25T20:12:05.836Z,5.37
2022-12-25T20:14:33.946Z,5.34
2022-12-25T20:17:02.168Z,5.40
2022-12-25T20:19:30.463Z,5.45
2022-12-25T20:21:58.766Z,5.41
2022-12-25T20:24:27.096Z,5.39
2022-12-25T20:26:59.120Z,5.45
2022-12-25T20:29:27.787Z,5.55
2022-12-25T20:31:56.010Z,5.62
2022-12-25T20:34:24.346Z,5.61
2022-12-25T20:36:52.608Z,5.66
2022-12-25T20:39:20.872Z,5.64
2022-12-25T20:41:48.995Z,5.65
2022-12-25T20:44:19.680Z,5.63
2022-12-25T20:46:47.908Z,5.59
2022-12-25T20:49:16.206Z,5.62
2022-12-25T20:51:44.444Z,5.58
2022-12-25T20:54:14.966Z,5.49
2022-12-25T20:56:44.379Z,5.44
2022-12-25T20:59:13.058Z,5.46
2022-12-25T21:01:43.848Z,5.56
2022-12-25T21:04:16.185Z,5.63
2022-12-25T21:06:44.852Z,5.66
2022-12-25T21:09:12.997Z,5.65
2022-12-25T21:11:41.567Z,5.61
2022-12-25T21:14:10.818Z,5.59
2022-12-25T21:16:39.087Z,5.64
2022-12-25T21:19:08.590Z,5.64
2022-12-25T21:21:39.246Z,5.60
2022-12-25T21:24:07.666Z,5.59
2022-12-25T21:26:36.768Z,5.58
2022-12-25T21:29:05.374Z,5.59
2022-12-25T21:31:55.278Z,5.62
2022-12-25T21:34:24.776Z,5.75
2022-12-25T21:36:52.938Z,5.80
2022-12-25T21:39:21.277Z,5.85
2022-12-25T21:41:49.388Z,5.85
2022-12-25T21:44:17.563Z,5.84
2022-12-25T21:46:45.769Z,5.82
2022-12-25T21:49:33.956Z,5.78
2022-12-25T21:52:08.072Z,5.75
2022-12-25T21:54:36.742Z,5.74
2022-12-25T21:57:04.926Z,5.73
2022-12-25T21:59:33.140Z,5.71
2022-12-25T22:02:01.541Z,5.66
2022-12-25T22:04:30.036Z,5.60
2022-12-25T22:07:15.849Z,5.58
2022-12-25T22:09:46.779Z,5.53
2022-12-25T22:12:34.475Z,5.47
2022-12-25T22:15:06.767Z,5.43
2022-12-25T22:17:54.811Z,5.43
2022-12-25T22:20:25.390Z,5.37
2022-12-25T22:22:53.796Z,5.37
2022-12-25T22:25:24.723Z,5.35
2022-12-25T22:27:53.316Z,5.37
2022-12-25T22:30:23.657Z,5.35
2022-12-25T22:32:52.969Z,5.36
2022-12-25T22:35:22.109Z,5.39
2022-12-25T22:37:50.942Z,5.38
2022-12-25T22:40:20.733Z,5.44
2022-12-25T22:42:50.847Z,5.44
2022-12-25T22:45:19.090Z,5.52
2022-12-25T22:47:47.472Z,5.54
2022-12-25T22:50:16.031Z,5.56
2022-12-25T22:52:45.846Z,5.58
2022-12-25T22:55:18.391Z,5.52
2022-12-25T22:57:46.693Z,5.42
2022-12-25T23:00:16.287Z,5.36
2022-12-25T23:02:44.649Z,5.34
2022-12-25T23:05:12.913Z,5.29
2022-12-25T23:07:41.819Z,5.23
2022-12-25T23:10:11.311Z,5.17
2022-12-25T23:12:57.051Z,5.13
2022-12-25T23:15:27.681Z,5.19
2022-12-25T23:18:13.563Z,5.16
2022-12-25T23:20:59.187Z,5.11
2022-12-25T23:23:44.839Z,5.10
2022-12-25T23:26:14.594Z,5.09
2022-12-25T23:29:01.914Z,5.11
2022-12-25T23:31:34.501Z,5.13
2022-12-25T23:34:03.755Z,5.17
2022-12-25T23:36:32.161Z,5.17
2022-12-25T23:39:08.521Z,5.15
2022-12-25T23:41:38.302Z,5.16
2022-12-25T23:44:06.497Z,5.17
2022-12-25T23:46:36.775Z,5.18
2022-12-25T23:49:05.137Z,5.18
2022-12-25T23:51:33.378Z,5.23
2022-12-25T23:54:01.560Z,5.26
2022-12-25T23:56:29.787Z,5.34
2022-12-25T23:58:58.028Z,5.39
